Time;durP1;ratioP1;P1;durP2;ratioP2;P2;SDS_P1;SDS_P2;PMS_P1;PMS_P2;Temp;Humidity;BMP_temperature;BMP_pressure;BME280_temperature;BME280_humidity;BME280_pressure;Samples;Min_cycle;Max_cycle;Signal;HPM_P1;HPM_P2
2022/10/05 00:02:44;;;;;;;;;;;7.50;99.90;;;;;;4948413;28;19917;-85
2022/10/05 00:05:18;;;;;;;;;;;7.50;99.90;;;;;;4951438;28;19910;-84
2022/10/05 00:07:43;;;;;;;;;;;7.60;99.90;;;;;;4961372;28;20409;-84
2022/10/05 00:10:12;;;;;;;;;;;7.60;99.90;;;;;;4965581;28;20001;-84
2022/10/05 00:12:38;;;;;;;;;;;7.50;99.90;;;;;;4960485;28;19921;-85
2022/10/05 00:15:09;;;;;;;;;;;7.50;99.90;;;;;;4967206;28;20004;-84
2022/10/05 00:17:34;;;;;;;;;;;7.40;99.90;;;;;;4960472;28;20257;-85
2022/10/05 00:20:00;;;;;;;;;;;7.40;99.90;;;;;;4967911;28;19910;-85
2022/10/05 00:22:29;;;;;;;;;;;7.30;99.90;;;;;;4944277;28;20357;-85
2022/10/05 00:24:57;;;;;;;;;;;7.30;99.90;;;;;;4962195;28;19910;-85
2022/10/05 00:27:30;;;;;;;;;;;7.30;99.90;;;;;;4963846;28;19918;-85
2022/10/05 00:29:57;;;;;;;;;;;7.20;99.90;;;;;;4962179;28;19914;-84
2022/10/05 00:32:25;;;;;;;;;;;7.10;99.90;;;;;;4964718;28;19932;-85
2022/10/05 00:34:52;;;;;;;;;;;7.00;99.90;;;;;;4961984;28;19918;-85
2022/10/05 00:37:18;;;;;;;;;;;6.90;99.90;;;;;;4963577;28;20557;-85
2022/10/05 00:39:44;;;;;;;;;;;6.90;99.90;;;;;;4960920;28;20008;-85
2022/10/05 00:42:09;;;;;;;;;;;6.90;99.90;;;;;;4983361;28;19910;-85
2022/10/05 00:44:35;;;;;;;;;;;6.90;99.90;;;;;;4961840;28;19910;-84
2022/10/05 00:47:24;;;;;;;;;;;7.00;99.90;;;;;;4946830;28;20009;-85
2022/10/05 00:50:08;;;;;;;;;;;6.90;99.90;;;;;;4962753;28;20255;-85
2022/10/05 00:52:42;;;;;;;;;;;6.90;99.90;;;;;;4963029;28;19960;-84
2022/10/05 00:55:40;;;;;;;;;;;6.80;99.90;;;;;;4938779;28;20001;-85
2022/10/05 00:58:21;;;;;;;;;;;6.80;99.90;;;;;;4938876;28;19910;-84
2022/10/05 01:00:57;;;;;;;;;;;6.80;99.90;;;;;;4968694;28;19911;-84
2022/10/05 01:03:37;;;;;;;;;;;6.70;99.90;;;;;;4959688;28;20000;-85
2022/10/05 01:06:10;;;;;;;;;;;6.70;99.90;;;;;;4956012;28;19917;-84
2022/10/05 01:08:42;;;;;;;;;;;6.80;99.90;;;;;;4961329;28;20381;-85
2022/10/05 01:11:10;;;;;;;;;;;6.80;99.90;;;;;;4949470;28;19971;-84
2022/10/05 01:13:52;;;;;;;;;;;6.80;99.90;;;;;;4961548;28;19918;-84
2022/10/05 01:16:23;;;;;;;;;;;6.80;99.90;;;;;;4952861;28;19936;-84
2022/10/05 01:19:09;;;;;;;;;;;6.70;99.90;;;;;;4962089;28;19911;-84
2022/10/05 01:21:58;;;;;;;;;;;6.70;99.90;;;;;;4962908;28;19967;-84
2022/10/05 01:24:35;;;;;;;;;;;6.60;99.90;;;;;;4942223;28;19914;-84
2022/10/05 01:27:01;;;;;;;;;;;6.70;99.90;;;;;;4959371;28;20320;-84
2022/10/05 01:29:36;;;;;;;;;;;6.70;99.90;;;;;;4964775;28;19910;-84
2022/10/05 01:32:07;;;;;;;;;;;6.70;99.90;;;;;;4959193;28;19937;-84
2022/10/05 01:34:47;;;;;;;;;;;6.80;99.90;;;;;;4966193;28;19914;-84
2022/10/05 01:37:49;;;;;;;;;;;6.80;99.90;;;;;;4955369;28;19922;-83
2022/10/05 01:40:23;;;;;;;;;;;6.80;99.90;;;;;;4950538;28;19985;-84
2022/10/05 01:43:00;;;;;;;;;;;6.80;99.90;;;;;;4944637;28;19915;-84
2022/10/05 01:45:47;;;;;;;;;;;6.80;99.90;;;;;;4962224;28;19910;-84
2022/10/05 01:48:20;;;;;;;;;;;6.80;99.90;;;;;;4962402;28;20344;-84
2022/10/05 01:50:52;;;;;;;;;;;6.80;99.90;;;;;;4962910;28;19914;-84
2022/10/05 01:53:44;;;;;;;;;;;6.80;99.90;;;;;;4961898;28;19925;-84
2022/10/05 01:56:28;;;;;;;;;;;6.80;99.90;;;;;;4940151;29;20040;-84
2022/10/05 01:58:57;;;;;;;;;;;6.70;99.90;;;;;;4943343;28;19911;-84
2022/10/05 02:01:26;;;;;;;;;;;6.70;99.90;;;;;;4963635;28;19936;-84
2022/10/05 02:03:55;;;;;;;;;;;6.80;99.90;;;;;;4960047;28;20411;-84
2022/10/05 02:06:23;;;;;;;;;;;6.90;99.90;;;;;;4961671;28;19910;-84
2022/10/05 02:08:52;;;;;;;;;;;6.90;99.90;;;;;;4941965;28;20022;-84
2022/10/05 02:11:18;;;;;;;;;;;6.90;99.90;;;;;;4961859;28;20384;-84
2022/10/05 02:13:49;;;;;;;;;;;6.80;99.90;;;;;;4953134;28;20013;-84
2022/10/05 02:16:23;;;;;;;;;;;6.80;99.90;;;;;;4961735;28;19921;-84
2022/10/05 02:19:15;;;;;;;;;;;6.70;99.90;;;;;;4961209;28;19918;-84
2022/10/05 02:21:45;;;;;;;;;;;6.70;99.90;;;;;;4930455;28;20281;-84
2022/10/05 02:24:17;;;;;;;;;;;6.70;99.90;;;;;;4960684;28;19917;-84
2022/10/05 02:26:44;;;;;;;;;;;6.70;99.90;;;;;;4961360;28;19925;-84
2022/10/05 02:29:11;;;;;;;;;;;6.70;99.90;;;;;;4945321;28;19906;-83
2022/10/05 02:31:49;;;;;;;;;;;6.70;99.90;;;;;;4961629;28;20857;-84
2022/10/05 02:34:19;;;;;;;;;;;6.50;99.90;;;;;;4962126;28;19915;-84
2022/10/05 02:36:48;;;;;;;;;;;6.50;99.90;;;;;;4960839;28;19922;-84
2022/10/05 02:39:18;;;;;;;;;;;6.50;99.90;;;;;;4942036;28;19921;-84
2022/10/05 02:41:54;;;;;;;;;;;6.40;99.90;;;;;;4964162;28;20010;-84
2022/10/05 02:44:43;;;;;;;;;;;6.30;99.90;;;;;;4957669;28;20362;-84
2022/10/05 02:47:28;;;;;;;;;;;6.30;99.90;;;;;;4911698;28;19916;-83
2022/10/05 02:49:55;;;;;;;;;;;6.30;99.90;;;;;;4943721;28;20698;-84
2022/10/05 02:52:25;;;;;;;;;;;6.30;99.90;;;;;;4963673;28;19921;-84
2022/10/05 02:55:01;;;;;;;;;;;6.30;99.90;;;;;;4959507;28;19972;-84
2022/10/05 02:57:59;;;;;;;;;;;6.30;99.90;;;;;;4961530;28;19910;-84
2022/10/05 03:00:27;;;;;;;;;;;6.30;99.90;;;;;;4986013;28;19945;-83
2022/10/05 03:02:54;;;;;;;;;;;6.40;99.90;;;;;;4960351;28;19914;-84
2022/10/05 03:05:26;;;;;;;;;;;6.30;99.90;;;;;;4942115;28;19916;-84
2022/10/05 03:07:56;;;;;;;;;;;6.30;99.90;;;;;;4964482;28;20134;-84
2022/10/05 03:10:22;;;;;;;;;;;6.40;99.90;;;;;;4960672;28;20485;-84
2022/10/05 03:13:04;;;;;;;;;;;6.30;99.90;;;;;;4968443;28;19913;-83
2022/10/05 03:15:48;;;;;;;;;;;6.30;99.90;;;;;;4945020;28;19910;-83
2022/10/05 03:18:30;;;;;;;;;;;6.30;99.90;;;;;;4955347;28;20384;-84
2022/10/05 03:21:06;;;;;;;;;;;6.40;99.90;;;;;;4946882;28;19911;-83
2022/10/05 03:23:42;;;;;;;;;;;6.50;99.90;;;;;;4963114;28;19910;-84
2022/10/05 03:26:23;;;;;;;;;;;6.70;99.90;;;;;;4953678;28;19910;-84
2022/10/05 03:28:56;;;;;;;;;;;6.70;99.90;;;;;;4962708;28;19921;-84
2022/10/05 03:31:25;;;;;;;;;;;6.90;99.90;;;;;;4964380;28;20009;-84
2022/10/05 03:34:04;;;;;;;;;;;6.90;99.90;;;;;;4963519;28;19952;-84
2022/10/05 03:36:49;;;;;;;;;;;6.90;99.90;;;;;;4964263;28;19917;-84
2022/10/05 03:39:21;;;;;;;;;;;7.00;99.90;;;;;;4959558;28;19915;-84
2022/10/05 03:41:46;;;;;;;;;;;7.00;99.90;;;;;;4966822;28;20008;-84
2022/10/05 03:44:34;;;;;;;;;;;7.10;99.90;;;;;;4960650;28;19945;-83
2022/10/05 03:47:00;;;;;;;;;;;7.50;99.90;;;;;;4967540;28;20354;-84
2022/10/05 03:49:30;;;;;;;;;;;8.00;99.90;;;;;;4960398;28;19910;-84
2022/10/05 03:52:10;;;;;;;;;;;8.10;99.90;;;;;;4968735;28;19952;-84
2022/10/05 03:54:45;;;;;;;;;;;8.30;99.90;;;;;;4960475;28;19910;-84
2022/10/05 03:57:19;;;;;;;;;;;8.40;99.90;;;;;;4954812;28;20004;-84
2022/10/05 04:00:04;;;;;;;;;;;8.50;99.90;;;;;;4963971;28;19953;-86
2022/10/05 04:02:42;;;;;;;;;;;8.50;99.90;;;;;;4964240;28;19925;-84
2022/10/05 04:05:08;;;;;;;;;;;8.50;99.90;;;;;;4944667;28;20250;-83
2022/10/05 04:07:42;;;;;;;;;;;8.50;99.90;;;;;;4966270;28;19909;-83
2022/10/05 04:10:22;;;;;;;;;;;8.60;99.90;;;;;;4941455;28;19949;-83
2022/10/05 04:12:57;;;;;;;;;;;8.70;99.90;;;;;;4967399;28;19914;-83
2022/10/05 04:15:28;;;;;;;;;;;8.70;99.90;;;;;;4944612;28;19993;-83
2022/10/05 04:18:01;;;;;;;;;;;8.80;99.90;;;;;;4968223;28;19917;-84
2022/10/05 04:20:43;;;;;;;;;;;8.90;99.90;;;;;;4960108;28;19914;-84
2022/10/05 04:23:09;;;;;;;;;;;9.00;99.90;;;;;;4949924;28;20573;-83
2022/10/05 04:25:47;;;;;;;;;;;9.00;99.90;;;;;;4961953;28;19946;-83
2022/10/05 04:28:24;;;;;;;;;;;9.00;99.90;;;;;;4951669;28;19971;-83
2022/10/05 04:30:51;;;;;;;;;;;8.90;99.90;;;;;;4962317;28;19932;-84
2022/10/05 04:33:17;;;;;;;;;;;8.90;99.90;;;;;;4963657;28;19954;-83
2022/10/05 04:35:47;;;;;;;;;;;8.90;99.90;;;;;;4963513;28;19993;-84
2022/10/05 04:38:13;;;;;;;;;;;8.90;99.90;;;;;;4963829;28;19910;-84
2022/10/05 04:40:54;;;;;;;;;;;8.90;99.90;;;;;;4961543;28;19910;-84
2022/10/05 04:43:28;;;;;;;;;;;9.00;99.90;;;;;;4963703;28;19917;-84
2022/10/05 04:46:00;;;;;;;;;;;9.00;99.90;;;;;;4962787;28;20365;-84
2022/10/05 04:48:38;;;;;;;;;;;9.00;99.90;;;;;;4947819;28;19910;-84
2022/10/05 04:51:16;;;;;;;;;;;9.00;99.90;;;;;;4945477;28;19967;-84
2022/10/05 04:53:57;;;;;;;;;;;9.00;99.90;;;;;;4964456;28;20312;-84
2022/10/05 04:56:29;;;;;;;;;;;8.90;99.90;;;;;;4960168;28;19922;-84
2022/10/05 04:59:01;;;;;;;;;;;8.90;99.90;;;;;;4962387;28;20013;-84
2022/10/05 05:01:27;;;;;;;;;;;8.90;99.90;;;;;;4964809;28;19956;-84
2022/10/05 05:03:52;;;;;;;;;;;8.90;99.90;;;;;;4962134;28;19941;-84
2022/10/05 05:06:18;;;;;;;;;;;9.00;99.90;;;;;;4963711;28;20357;-84
2022/10/05 05:08:50;;;;;;;;;;;9.00;99.90;;;;;;4961327;28;19917;-84
2022/10/05 05:11:25;;;;;;;;;;;9.00;99.90;;;;;;4963682;28;19914;-84
2022/10/05 05:14:13;;;;;;;;;;;9.00;99.90;;;;;;4962450;28;19950;-84
2022/10/05 05:16:40;;;;;;;;;;;9.00;99.90;;;;;;4963138;28;20340;-85
2022/10/05 05:19:12;;;;;;;;;;;9.10;99.90;;;;;;4947886;28;19917;-84
2022/10/05 05:21:45;;;;;;;;;;;9.10;99.90;;;;;;4963470;28;20004;-84
2022/10/05 05:24:10;;;;;;;;;;;9.10;99.90;;;;;;4939969;28;19994;-85
2022/10/05 05:26:39;;;;;;;;;;;9.10;99.90;;;;;;4963265;28;19953;-85
2022/10/05 05:29:05;;;;;;;;;;;9.00;99.90;;;;;;4945553;28;19932;-85
2022/10/05 05:31:31;;;;;;;;;;;9.00;99.90;;;;;;4952931;28;20342;-87
2022/10/05 05:34:15;;;;;;;;;;;9.10;99.90;;;;;;4954567;28;19910;-88
2022/10/05 05:36:50;;;;;;;;;;;9.10;99.90;;;;;;4963207;28;19910;-87
2022/10/05 05:39:20;;;;;;;;;;;9.10;99.90;;;;;;4944351;28;20346;-87
2022/10/05 05:41:54;;;;;;;;;;;9.10;99.90;;;;;;4966466;28;19910;-86
2022/10/05 05:44:25;;;;;;;;;;;9.20;99.90;;;;;;4944663;28;19910;-86
2022/10/05 05:47:06;;;;;;;;;;;9.30;99.90;;;;;;4967376;28;19956;-88
2022/10/05 05:49:43;;;;;;;;;;;9.50;99.90;;;;;;4945439;28;19910;-87
2022/10/05 05:52:13;;;;;;;;;;;9.50;99.90;;;;;;4937362;28;24055;-87
2022/10/05 05:54:41;;;;;;;;;;;9.60;99.90;;;;;;4944173;28;19911;-87
2022/10/05 05:57:13;;;;;;;;;;;9.70;99.90;;;;;;4963732;28;19906;-88
2022/10/05 05:59:59;;;;;;;;;;;9.70;99.90;;;;;;4963357;28;19956;-87
2022/10/05 06:02:28;;;;;;;;;;;9.70;99.90;;;;;;4963361;28;19910;-87
2022/10/05 06:04:57;;;;;;;;;;;9.80;99.90;;;;;;4961523;28;20369;-87
2022/10/05 06:07:24;;;;;;;;;;;9.90;99.90;;;;;;4964180;28;19950;-87
2022/10/05 06:10:18;;;;;;;;;;;9.90;99.90;;;;;;4961299;28;19914;-87
2022/10/05 06:12:55;;;;;;;;;;;9.90;99.90;;;;;;4966983;28;19964;-87
2022/10/05 06:15:28;;;;;;;;;;;9.90;99.90;;;;;;4959774;28;19911;-87
2022/10/05 06:17:56;;;;;;;;;;;9.90;99.90;;;;;;4967454;28;19979;-88
2022/10/05 06:20:32;;;;;;;;;;;9.90;99.90;;;;;;4944043;28;19910;-87
2022/10/05 06:22:59;;;;;;;;;;;9.90;99.90;;;;;;4946054;28;19910;-87
2022/10/05 06:25:25;;;;;;;;;;;9.90;99.90;;;;;;4962885;28;19917;-87
2022/10/05 06:28:02;;;;;;;;;;;9.90;99.90;;;;;;4961485;28;19910;-87
2022/10/05 06:30:36;;;;;;;;;;;10.00;99.90;;;;;;4963015;28;19988;-87
2022/10/05 06:33:06;;;;;;;;;;;9.90;99.90;;;;;;4962994;28;19960;-87
2022/10/05 06:35:38;;;;;;;;;;;10.00;99.90;;;;;;4963254;28;24078;-88
2022/10/05 06:38:09;;;;;;;;;;;10.00;99.90;;;;;;4934103;28;19963;-88
2022/10/05 06:40:41;;;;;;;;;;;10.10;99.90;;;;;;4961418;28;19910;-87
2022/10/05 06:43:10;;;;;;;;;;;10.20;99.90;;;;;;4952690;28;19917;-87
2022/10/05 06:46:04;;;;;;;;;;;10.30;99.90;;;;;;4966039;28;20329;-87
2022/10/05 06:48:56;;;;;;;;;;;10.50;99.90;;;;;;4971781;28;19910;-87
2022/10/05 06:51:45;;;;;;;;;;;10.60;99.90;;;;;;5000569;28;20373;-87
2022/10/05 06:54:31;;;;;;;;;;;10.60;99.90;;;;;;4962486;28;25170;-87
2022/10/05 06:57:03;;;;;;;;;;;10.70;99.90;;;;;;4964361;28;24066;-87
2022/10/05 06:59:42;;;;;;;;;;;10.80;99.90;;;;;;4965906;28;19917;-87
2022/10/05 07:02:23;;;;;;;;;;;10.70;99.90;;;;;;4949283;28;19930;-87
2022/10/05 07:04:58;;;;;;;;;;;10.80;99.90;;;;;;4947643;28;24104;-87
2022/10/05 07:07:33;;;;;;;;;;;10.80;99.90;;;;;;4965893;28;19914;-87
2022/10/05 07:10:04;;;;;;;;;;;10.80;99.90;;;;;;4961788;28;19929;-87
2022/10/05 07:12:30;;;;;;;;;;;10.90;99.90;;;;;;4967030;28;19991;-86
2022/10/05 07:15:15;;;;;;;;;;;11.00;99.90;;;;;;4962076;28;19906;-87
2022/10/05 07:17:54;;;;;;;;;;;11.00;99.90;;;;;;4969464;28;24062;-88
2022/10/05 07:20:46;;;;;;;;;;;11.00;99.90;;;;;;4946846;28;19917;-88
2022/10/05 07:23:27;;;;;;;;;;;11.00;99.90;;;;;;4919786;28;19916;-87
2022/10/05 07:29:23;;;;;;;;;;;11.00;99.90;;;;;;5014757;28;20385;-87
2022/10/05 07:32:10;;;;;;;;;;;10.90;99.90;;;;;;4994325;28;19942;-88
2022/10/05 07:34:42;;;;;;;;;;;10.80;99.90;;;;;;4968433;28;24165;-88
2022/10/05 07:40:08;;;;;;;;;;;10.80;99.90;;;;;;4965517;28;20414;-88
2022/10/05 07:42:51;;;;;;;;;;;10.80;99.90;;;;;;4947346;28;24067;-88
2022/10/05 07:45:26;;;;;;;;;;;10.90;99.90;;;;;;4953127;28;19972;-88
2022/10/05 07:47:54;;;;;;;;;;;10.90;99.90;;;;;;4963146;28;19910;-89
2022/10/05 07:50:24;;;;;;;;;;;11.00;99.90;;;;;;4964001;28;24158;-88
2022/10/05 07:52:55;;;;;;;;;;;11.00;99.90;;;;;;4963830;28;19910;-88
2022/10/05 07:55:24;;;;;;;;;;;11.00;99.90;;;;;;4963423;28;19917;-89
2022/10/05 07:58:15;;;;;;;;;;;11.00;99.90;;;;;;4962444;28;19910;-88
2022/10/05 08:00:45;;;;;;;;;;;11.10;99.90;;;;;;4965680;28;19935;-89
2022/10/05 08:03:31;;;;;;;;;;;11.10;99.90;;;;;;4945062;28;24132;-88
2022/10/05 08:05:57;;;;;;;;;;;11.30;99.90;;;;;;4946216;28;25070;-88
2022/10/05 08:08:27;;;;;;;;;;;11.30;99.90;;;;;;4964075;28;19911;-88
2022/10/05 08:10:53;;;;;;;;;;;11.40;99.90;;;;;;4962467;28;20273;-88
2022/10/05 08:13:19;;;;;;;;;;;11.50;99.90;;;;;;4964853;28;19910;-89
2022/10/05 08:15:47;;;;;;;;;;;11.50;99.90;;;;;;4963222;28;24102;-87
2022/10/05 08:18:17;;;;;;;;;;;11.40;99.90;;;;;;4966426;28;19911;-87
2022/10/05 08:24:32;;;;;;;;;;;11.60;99.90;;;;;;4958511;28;19917;-88
2022/10/05 08:30:29;;;;;;;;;;;11.70;99.90;;;;;;4963242;28;20070;-89
2022/10/05 08:33:13;;;;;;;;;;;11.80;99.90;;;;;;4966205;28;20261;-89
2022/10/05 08:35:50;;;;;;;;;;;11.90;99.90;;;;;;4964609;28;20022;-88
2022/10/05 08:38:17;;;;;;;;;;;11.90;99.90;;;;;;4965390;28;19910;-88
2022/10/05 08:40:45;;;;;;;;;;;12.00;99.90;;;;;;4961123;28;20368;-88
2022/10/05 08:43:30;;;;;;;;;;;12.10;99.90;;;;;;4962893;28;19918;-88
2022/10/05 08:46:01;;;;;;;;;;;12.20;99.90;;;;;;4961679;28;20038;-87
2022/10/05 08:48:36;;;;;;;;;;;12.20;99.90;;;;;;4962558;28;20345;-87
2022/10/05 08:51:10;;;;;;;;;;;12.30;99.90;;;;;;4962161;28;20030;-87
2022/10/05 08:53:39;;;;;;;;;;;12.30;99.90;;;;;;4964125;28;20496;-88
2022/10/05 08:56:24;;;;;;;;;;;12.30;99.90;;;;;;4957850;28;20404;-88
2022/10/05 08:58:50;;;;;;;;;;;12.40;99.90;;;;;;4942999;28;20084;-88
2022/10/05 09:01:30;;;;;;;;;;;12.60;99.90;;;;;;4988215;28;20025;-88
2022/10/05 09:04:08;;;;;;;;;;;12.90;99.90;;;;;;4946566;28;20388;-88
2022/10/05 09:06:43;;;;;;;16.40;11.90;;;13.10;99.90;;;;;;4962442;28;20050;-86
2022/10/05 09:09:29;;;;;;;15.80;10.55;;;13.50;99.90;;;;;;4936985;28;20697;-88
2022/10/05 09:12:04;;;;;;;12.35;9.88;;;13.90;99.90;;;;;;4946237;28;20034;-88
2022/10/05 09:14:52;;;;;;;16.67;9.73;;;14.30;99.90;;;;;;4963300;28;20030;-86
2022/10/05 09:17:44;;;;;;;15.45;9.18;;;14.80;99.90;;;;;;4964487;28;20057;-86
2022/10/05 09:20:29;;;;;;;12.57;7.53;;;15.10;99.90;;;;;;4943806;28;20047;-86
2022/10/05 09:23:26;;;;;;;10.20;7.70;;;15.30;99.90;;;;;;4961993;28;20038;-86
2022/10/05 09:26:08;;;;;;;14.05;7.45;;;15.90;99.90;;;;;;4960086;28;20043;-86
2022/10/05 09:29:21;;;;;;;12.63;7.78;;;16.40;99.90;;;;;;4946262;28;20232;-88
2022/10/05 09:32:22;;;;;;;10.93;7.45;;;16.70;99.90;;;;;;4946138;28;20046;-88
2022/10/05 09:35:26;;;;;;;8.52;6.85;;;17.50;99.90;;;;;;4969754;28;20046;-86
2022/10/05 09:38:09;;;;;;;9.23;7.25;;;18.00;99.90;;;;;;4959505;28;20035;-86
2022/10/05 09:40:47;;;;;;;12.40;7.65;;;17.70;99.90;;;;;;4961376;28;20070;-86
2022/10/05 09:43:40;;;;;;;9.70;7.53;;;17.80;99.90;;;;;;4937369;28;20022;-86
2022/10/05 09:46:15;;;;;;;12.35;7.07;;;17.70;99.90;;;;;;4961575;28;20111;-86
2022/10/05 09:49:00;;;;;;;8.57;7.35;;;17.80;99.90;;;;;;4962411;28;20085;-86
2022/10/05 09:51:45;;;;;;;11.10;7.13;;;17.80;99.90;;;;;;4980713;28;20371;-86
2022/10/05 09:54:10;;;;;;;10.05;7.63;;;18.10;99.90;;;;;;4954320;28;20478;-86
2022/10/05 09:57:10;;;;;;;11.95;6.70;;;18.30;99.90;;;;;;4959540;28;20049;-85
2022/10/05 10:00:09;;;;;;;13.18;8.00;;;18.90;99.90;;;;;;4941214;28;20474;-86
2022/10/05 10:02:56;;;;;;;13.10;7.93;;;19.20;99.90;;;;;;4961743;28;20034;-86
2022/10/05 10:05:37;;;;;;;8.18;7.30;;;19.10;99.90;;;;;;4958672;28;20034;-85
2022/10/05 10:08:09;;;;;;;;;;;19.10;99.90;;;;;;4965698;28;20023;-85
2022/10/05 10:11:03;;;;;;;12.60;8.32;;;19.60;99.90;;;;;;4955318;28;19925;-86
2022/10/05 10:13:40;;;;;;;23.25;13.88;;;19.70;99.90;;;;;;4939144;28;20034;-86
2022/10/05 10:16:27;;;;;;;12.13;8.10;;;19.50;99.90;;;;;;4933478;28;20031;-87
2022/10/05 10:19:22;;;;;;;10.18;7.22;;;19.50;99.90;;;;;;4945190;28;20061;-87
2022/10/05 10:22:07;;;;;;;8.93;7.60;;;19.50;99.90;;;;;;4944441;28;20133;-86
2022/10/05 10:25:10;;;;;;;13.68;7.90;;;19.60;99.90;;;;;;4963571;28;20030;-87
2022/10/05 10:27:53;;;;;;;12.90;8.63;;;19.50;99.90;;;;;;4954775;28;20553;-86
2022/10/05 10:31:03;;;;;;;12.90;6.75;;;19.30;99.90;;;;;;4937226;28;20035;-87
2022/10/05 10:33:42;;;;;;;10.30;6.82;;;19.40;99.90;;;;;;4959614;28;20027;-86
2022/10/05 10:36:26;;;;;;;13.38;7.07;;;19.70;99.90;;;;;;4943605;28;20026;-86
2022/10/05 10:38:59;;;;;;;7.70;6.72;;;19.60;99.90;;;;;;4960181;28;20023;-86
2022/10/05 10:41:48;;;;;;;10.10;6.95;;;19.40;99.90;;;;;;4962767;28;20038;-86
2022/10/05 10:44:26;;;;;;;9.10;6.60;;;19.30;99.90;;;;;;4942098;28;20544;-86
2022/10/05 10:47:26;;;;;;;12.02;6.47;;;19.80;99.90;;;;;;4965854;28;20441;-86
2022/10/05 10:50:13;;;;;;;9.30;5.57;;;20.40;99.90;;;;;;4958812;28;20046;-86
2022/10/05 10:52:57;;;;;;;11.32;6.25;;;20.10;99.90;;;;;;4961752;28;20084;-85
2022/10/05 10:55:47;;;;;;;12.20;6.78;;;20.40;99.90;;;;;;4945933;28;20169;-86
2022/10/05 10:58:51;;;;;;;11.93;6.43;;;20.50;99.90;;;;;;4955328;28;20046;-86
2022/10/05 11:01:34;;;;;;;7.93;5.78;;;20.30;99.90;;;;;;4952763;28;20773;-83
2022/10/05 11:04:11;;;;;;;11.93;6.30;;;20.40;99.90;;;;;;4944437;28;20063;-86
2022/10/05 11:06:51;;;;;;;6.75;4.90;;;20.10;99.90;;;;;;4943768;28;20031;-86
2022/10/05 11:09:38;;;;;;;12.02;5.75;;;20.30;99.90;;;;;;4953021;28;20486;-86
2022/10/05 11:12:40;;;;;;;5.97;4.70;;;20.60;99.90;;;;;;4959276;28;20045;-86
2022/10/05 11:15:42;;;;;;;6.38;4.85;;;20.60;99.90;;;;;;4953706;28;20034;-86
2022/10/05 11:18:19;;;;;;;23.70;12.55;;;20.90;99.90;;;;;;4935487;28;20030;-85
2022/10/05 11:21:12;;;;;;;19.55;9.90;;;21.10;99.90;;;;;;4956415;28;20035;-86
2022/10/05 11:24:11;;;;;;;6.25;4.30;;;21.30;99.90;;;;;;4959153;28;20031;-86
2022/10/05 11:26:56;;;;;;;5.70;3.95;;;21.50;99.90;;;;;;4942425;28;20034;-85
2022/10/05 11:29:48;;;;;;;6.10;4.10;;;21.90;99.90;;;;;;4947144;28;20050;-86
2022/10/05 11:32:16;;;;;;;;;;;21.90;99.90;;;;;;4958605;28;20066;-86
2022/10/05 11:34:42;;;;;;;9.60;4.90;;;21.90;99.90;;;;;;4968913;28;20662;-86
2022/10/05 11:37:17;;;;;;;6.50;4.10;;;22.50;99.90;;;;;;4945286;28;20055;-85
2022/10/05 11:40:21;;;;;;;7.07;4.25;;;22.70;99.90;;;;;;4961987;28;20147;-85
2022/10/05 11:43:18;;;;;;;7.70;4.50;;;22.40;99.90;;;;;;4946518;28;20419;-85
2022/10/05 11:45:53;;;;;;;5.70;4.10;;;22.40;99.90;;;;;;4947172;28;20037;-85
2022/10/05 11:48:30;;;;;;;5.55;3.60;;;22.00;99.90;;;;;;4964831;28;20043;-86
2022/10/05 11:51:25;;;;;;;6.85;4.00;;;21.70;99.90;;;;;;4964296;28;19921;-86
2022/10/05 11:54:16;;;;;;;5.90;4.05;;;21.50;99.90;;;;;;4879783;28;20474;-86
2022/10/05 11:57:11;;;;;;;7.35;3.50;;;21.20;99.90;;;;;;4959567;28;19911;-86
2022/10/05 11:59:55;;;;;;;5.35;3.75;;;21.60;99.90;;;;;;4934749;28;20760;-86
2022/10/05 12:02:45;;;;;;;12.05;4.05;;;21.70;99.90;;;;;;4958627;28;19910;-85
2022/10/05 12:05:45;;;;;;;7.50;3.40;;;22.00;99.90;;;;;;4958761;28;20082;-84
2022/10/05 12:08:11;;;;;;;;;;;22.20;99.90;;;;;;4955985;28;20510;-85
2022/10/05 12:10:43;;;;;;;5.50;3.40;;;21.90;99.90;;;;;;4960899;28;20065;-85
2022/10/05 12:13:19;;;;;;;;;;;21.90;99.90;;;;;;4954978;28;20503;-85
2022/10/05 12:15:51;;;;;;;;;;;21.90;99.90;;;;;;4943368;28;20036;-85
2022/10/05 12:18:21;;;;;;;;;;;21.60;99.90;;;;;;4966502;28;20040;-85
2022/10/05 12:20:59;;;;;;;;;;;21.60;99.90;;;;;;4943760;28;20047;-85
2022/10/05 12:23:36;;;;;;;11.80;3.50;;;21.40;99.90;;;;;;4963964;28;20071;-85
2022/10/05 12:26:19;;;;;;;6.00;3.60;;;21.30;99.90;;;;;;4965328;28;20101;-85
2022/10/05 12:29:03;;;;;;;;;;;21.50;99.90;;;;;;4963296;28;20039;-85
2022/10/05 12:31:38;;;;;;;4.50;3.50;;;21.30;99.90;;;;;;4963949;28;20078;-86
2022/10/05 12:34:47;;;;;;;6.10;3.87;;;20.80;99.90;;;;;;4961716;28;20373;-86
2022/10/05 12:37:50;;;;;;;5.90;4.30;;;20.50;99.90;;;;;;4940495;28;20066;-86
2022/10/05 12:40:25;;;;;;;9.65;5.20;;;20.20;99.90;;;;;;4935943;28;20046;-85
2022/10/05 12:42:55;;;;;;;;;;;20.00;99.90;;;;;;4960406;28;19911;-86
2022/10/05 12:45:37;;;;;;;8.70;4.40;;;19.90;99.90;;;;;;4964012;28;20030;-86
2022/10/05 12:48:26;;;;;;;7.15;4.10;;;19.90;99.90;;;;;;4963840;28;20053;-85
2022/10/05 12:51:21;;;;;;;6.43;3.80;;;20.10;99.90;;;;;;4946572;28;20102;-85
2022/10/05 12:54:09;;;;;;;10.10;4.20;;;20.20;99.90;;;;;;4929345;28;19917;-86
2022/10/05 12:56:40;;;;;;;11.55;3.75;;;20.40;99.90;;;;;;4957562;28;20114;-85
2022/10/05 12:59:22;;;;;;;7.00;3.80;;;20.50;99.90;;;;;;4950567;28;20090;-85
2022/10/05 13:02:00;;;;;;;5.15;4.00;;;20.50;99.90;;;;;;4964260;28;20125;-86
2022/10/05 13:05:05;;;;;;;8.25;4.10;;;20.20;99.90;;;;;;4963834;28;20340;-85
2022/10/05 13:07:34;;;;;;;;;;;19.80;99.90;;;;;;4960732;28;20116;-85
2022/10/05 13:10:18;;;;;;;;;;;19.30;99.90;;;;;;4960007;28;19915;-85
2022/10/05 13:12:51;;;;;;;6.90;3.67;;;19.10;99.90;;;;;;4966823;28;20572;-85
2022/10/05 13:15:42;;;;;;;5.70;3.80;;;18.90;99.90;;;;;;4959780;28;19910;-86
2022/10/05 13:18:11;;;;;;;6.00;4.22;;;18.90;99.90;;;;;;4952878;28;20061;-85
2022/10/05 13:20:56;;;;;;;4.18;3.42;;;18.80;99.90;;;;;;4943420;29;20023;-87
2022/10/05 13:23:47;;;;;;;7.65;3.92;;;18.80;99.90;;;;;;4952557;28;20031;-85
2022/10/05 13:26:16;;;;;;;4.25;3.10;;;18.70;99.90;;;;;;4962907;28;20031;-86
2022/10/05 13:28:50;;;;;;;8.68;4.03;;;18.60;99.90;;;;;;4946173;28;20026;-85
2022/10/05 13:31:37;;;;;;;14.32;4.55;;;18.60;99.90;;;;;;4946932;28;20026;-85
2022/10/05 13:34:17;;;;;;;12.18;6.45;;;18.60;99.90;;;;;;4962451;28;20493;-85
2022/10/05 13:36:58;;;;;;;13.05;6.82;;;18.50;99.90;;;;;;4962797;28;20037;-85
2022/10/05 13:39:39;;;;;;;7.35;3.42;;;18.60;99.90;;;;;;4943794;29;20449;-85
2022/10/05 13:42:10;;;;;;;5.50;3.60;;;18.60;99.90;;;;;;4937767;28;20035;-86
2022/10/05 13:48:24;;;;;;;11.25;4.10;;;18.50;99.90;;;;;;4957712;28;20049;-85
2022/10/05 13:50:54;;;;;;;11.35;3.75;;;18.50;99.90;;;;;;4963633;28;20031;-85
2022/10/05 13:53:38;;;;;;;8.13;3.88;;;18.40;99.90;;;;;;4946077;28;20381;-86
2022/10/05 13:56:39;;;;;;;8.15;3.70;;;18.40;99.90;;;;;;4956957;28;20038;-84
2022/10/05 13:59:25;;;;;;;5.82;3.83;;;18.50;99.90;;;;;;4988730;28;20021;-87
2022/10/05 14:02:30;;;;;;;5.22;3.67;;;18.50;99.90;;;;;;4963319;28;20494;-87
2022/10/05 14:05:00;;;;;;;7.47;4.68;;;18.50;99.90;;;;;;4943998;28;20037;-85
2022/10/05 14:07:32;;;;;;;4.30;3.00;;;18.50;99.90;;;;;;4963656;28;20085;-86
2022/10/05 14:09:59;;;;;;;6.70;3.42;;;18.50;99.90;;;;;;4959821;28;20050;-86
2022/10/05 14:12:42;;;;;;;4.10;3.28;;;18.50;99.90;;;;;;5066894;27;20364;-87
2022/10/05 14:15:35;;;;;;;4.88;3.00;;;18.60;99.90;;;;;;5065942;27;20025;-87
2022/10/05 14:18:24;;;;;;;14.90;3.83;;;18.60;99.90;;;;;;5049449;28;20555;-87
2022/10/05 14:21:08;;;;;;;8.07;4.00;;;18.60;99.90;;;;;;5063831;27;20064;-87
2022/10/05 14:23:34;;;;;;;8.38;3.67;;;18.60;99.90;;;;;;5065381;27;20021;-86
2022/10/05 14:26:00;;;;;;;5.68;3.70;;;18.60;99.90;;;;;;5067185;27;20025;-87
2022/10/05 14:28:37;;;;;;;5.07;3.78;;;18.70;99.90;;;;;;5048597;28;20025;-87
2022/10/05 14:31:11;;;;;;;7.85;3.78;;;18.80;99.90;;;;;;5045109;28;20044;-87
2022/10/05 14:33:55;;;;;;;8.13;3.60;;;18.70;99.90;;;;;;5072638;28;20055;-87
2022/10/05 14:36:39;;;;;;;11.02;3.92;;;18.70;99.90;;;;;;5059352;28;20040;-87
2022/10/05 14:39:11;;;;;;;6.95;4.25;;;18.70;99.90;;;;;;5063002;27;20028;-87
2022/10/05 14:41:44;;;;;;;6.80;4.50;;;18.70;99.90;;;;;;5065519;28;20121;-86
2022/10/05 14:44:13;;;;;;;8.75;4.53;;;18.70;99.90;;;;;;5045388;28;20036;-86
2022/10/05 14:46:54;;;;;;;7.07;4.28;;;18.60;99.90;;;;;;5065087;28;20028;-86
2022/10/05 14:49:25;;;;;;;7.35;4.10;;;18.60;99.90;;;;;;5064178;27;20033;-87
2022/10/05 14:51:52;;;;;;;6.70;3.95;;;18.60;99.90;;;;;;5064469;28;20037;-86
2022/10/05 14:54:24;;;;;;;9.77;4.60;;;18.50;99.90;;;;;;5047939;27;20463;-86
2022/10/05 14:57:09;;;;;;;7.03;4.20;;;18.50;99.90;;;;;;5064590;27;20044;-87
2022/10/05 14:59:42;;;;;;;8.43;3.92;;;18.40;99.90;;;;;;5064857;27;20484;-87
2022/10/05 15:02:26;;;;;;;4.55;3.65;;;18.30;99.90;;;;;;5040252;27;20040;-87
2022/10/05 15:05:03;;;;;;;5.53;4.05;;;18.40;99.90;;;;;;5064538;27;20079;-88